Terminal Aerodrome Forecast
Issued by NWS

Home | Current Version | Previous Version | Text Only | Print | Product List | Glossary On
Versions: 1 2 3 4 5 6 7 8 9 10 11 12 13 14 15 16 17 18 19 20 21 22 23 24 25 26 27 28 29 30 31 32 33 34 35 36
294
FTUS43 KGRB 130520
TAFCWA
TAF
KCWA 130520Z 1306/1406 35003KT 6SM BR OVC022
      TEMPO 1306/1308 5SM BR BKN008
     FM130800 36003KT 5SM BR BKN006
     FM131500 06005KT 5SM BR OVC012
     FM140100 VRB03KT 3SM -SN OVC007
     AMD LTD TO CLD VIS AND WIND TIL 131200=

USA.gov is the U.S. government's official web portal to all federal, state and local government web resources and services.